Sheffield, Texas
Current Conditions -  °F | °C
As of 2:55 PM on Friday 31 Oct 2014 (Local Time) from KOZA Reporting Station
Clear Clear  
Wind Chill: 72°   Ceiling: Unl
Heat Index: 72°   Visibility: 10mi
Dew Point: 30°   Wind: 9mph
Humidity: 22%   Direction: 100°E
Pressure: 30.33"   Gusts: 17mph
Location:  30.69°N, 101.82°W
Report Text: KOZA 311955Z AUTO 10008G15KT 10SM CLR 22/M01 A3033 RMK AO2
Loading
Personal Weather Stations






























Interactive Weather Map
Tropical Storm Tracking
New forecast layout! Learn more

10-Day Weather Forecast

Advertisements
Track Severe Weather on mobile